Astra — PB4187 — position and weather

sailwx.info

Track history (hours):
 
Tides and Currents Weather Stations Pressure Air Temp Water Temp Dewpoint Dewpoint Depression Visibility Wind Speed Wind Dir Waves Ship Positions

Astra

Last reported at 2017-Feb-26 21:33 UTC. Time now 2017-Feb-26 21:47 UTC.
Position N 51°54' E 004°13'.

Length 110 m.

Type: Ship. MMSI: 244650752.

Date/timePositionNaut miles runAvg speedWind from/ knotsBaromVisibWave heightAir tempDewpointWater temp
2017-Feb-26 21:33N 51°54' E 004°13'3 3.4
2017-Feb-26 20:33N 51°52' E 004°18'0 0.0
2017-Feb-26 19:33N 51°52' E 004°18'0 0.0
2017-Feb-26 18:33N 51°52' E 004°18'0 0.0
2017-Feb-26 17:33N 51°52' E 004°18'0 0.0
2017-Feb-26 16:33N 51°52' E 004°18'0 0.0
2017-Feb-26 15:33N 51°52' E 004°18'0 0.0
2017-Feb-26 14:33N 51°52' E 004°18'0 0.0
2017-Feb-26 13:33N 51°52' E 004°18'0 0.0
2017-Feb-26 12:33N 51°52' E 004°18'0 0.0
2017-Feb-26 11:33N 51°52' E 004°18'0 0.0
2017-Feb-26 10:33N 51°52' E 004°18'0 0.0
2017-Feb-26 09:33N 51°52' E 004°18'0 0.0
2017-Feb-26 08:33N 51°52' E 004°18'0 0.0
2017-Feb-26 07:33N 51°52' E 004°18'0 0.0
2017-Feb-26 06:33N 51°52' E 004°18'0 0.0
2017-Feb-26 05:33N 51°52' E 004°18'0 0.0
2017-Feb-26 04:33N 51°52' E 004°18'0 0.0
2017-Feb-26 03:33N 51°52' E 004°18'0 0.0
2017-Feb-26 02:33N 51°52' E 004°18'0 0.0
2017-Feb-26 01:33N 51°52' E 004°18'0 0.0
2017-Feb-26 00:33N 51°52' E 004°18'0 0.0
2017-Feb-25 23:33N 51°52' E 004°18'0 0.0
2017-Feb-25 22:33N 51°52' E 004°18'0 0.0
2017-Feb-25 21:33N 51°52' E 004°18'0 0.0
2017-Feb-25 20:33N 51°52' E 004°18'3 3.1
2017-Feb-25 19:33N 51°54' E 004°14'10 9.8
2017-Feb-25 18:33N 51°50' E 004°28'8 7.9
2017-Feb-25 17:31N 51°49' E 004°42'1010.2
2017-Feb-25 16:33N 51°50' E 004°57'1110.2
2017-Feb-25 15:27N 51°49' E 005°16'9 9.1
2017-Feb-25 14:27N 51°53' E 005°29'1010.8
2017-Feb-25 13:33N 51°53' E 005°44'9 8.5
2017-Feb-25 12:33N 51°51' E 005°58'1010.4
2017-Feb-25 11:33N 51°50' E 006°14'9 9.3
2017-Feb-25 10:33N 51°43' E 006°25'9 8.9
2017-Feb-25 09:33N 51°37' E 006°35'9 8.6
2017-Feb-25 08:33N 51°30' E 006°43'9 8.3
2017-Feb-25 07:26N 51°21' E 006°40'8 9.6
2017-Feb-25 06:33N 51°13' E 006°46'15 7.2
2017-Feb-25 04:31N 51°01' E 006°58'9 8.7
2017-Feb-25 03:30N 50°52' E 007°03'8 8.2
2017-Feb-25 02:33N 50°45' E 007°06'  
2017-Feb-21 06:04N 49°12' E 008°23'0 0.6
2017-Feb-21 05:31N 49°13' E 008°23'  
2017-Feb-17 11:05N 47°37' E 007°34'4 5.7
2017-Feb-17 10:24N 47°33' E 007°37'1 1.4
2017-Feb-17 09:33N 47°33' E 007°38'0 0.0
2017-Feb-17 08:33N 47°33' E 007°38'0 0.0
2017-Feb-17 07:33N 47°33' E 007°38'0 0.0
2017-Feb-17 06:33N 47°33' E 007°38'0 0.0
2017-Feb-17 05:34N 47°33' E 007°38'0 0.0
2017-Feb-17 04:33N 47°33' E 007°38'0 0.0
2017-Feb-17 03:33N 47°33' E 007°38'0 0.0
2017-Feb-17 02:33N 47°33' E 007°38'0 0.0
2017-Feb-17 01:34N 47°33' E 007°38'0 0.0
2017-Feb-17 00:32N 47°33' E 007°38'0 0.0
2017-Feb-16 23:33N 47°33' E 007°38'0 0.0
2017-Feb-16 22:33N 47°33' E 007°38'  
Track history (hours):
 
Tides and Currents Weather Stations Pressure Air Temp Water Temp Dewpoint Dewpoint Depression Visibility Wind Speed Wind Dir Waves Ship Positions

Astra

Last reported at 2017-Feb-26 21:33 UTC. Time now 2017-Feb-26 21:47 UTC.
Position N 51°54' E 004°13'.

Length 110 m.

Type: Ship. MMSI: 244650752.

Date/timePositionNaut miles runAvg speedWind from/ knotsBaromVisibWave heightAir tempDewpointWater temp
2017-Feb-26 21:33N 51°54' E 004°13'3 3.4
2017-Feb-26 20:33N 51°52' E 004°18'0 0.0
2017-Feb-26 19:33N 51°52' E 004°18'0 0.0
2017-Feb-26 18:33N 51°52' E 004°18'0 0.0
2017-Feb-26 17:33N 51°52' E 004°18'0 0.0
2017-Feb-26 16:33N 51°52' E 004°18'0 0.0
2017-Feb-26 15:33N 51°52' E 004°18'0 0.0
2017-Feb-26 14:33N 51°52' E 004°18'0 0.0
2017-Feb-26 13:33N 51°52' E 004°18'0 0.0
2017-Feb-26 12:33N 51°52' E 004°18'0 0.0
2017-Feb-26 11:33N 51°52' E 004°18'0 0.0
2017-Feb-26 10:33N 51°52' E 004°18'0 0.0
2017-Feb-26 09:33N 51°52' E 004°18'0 0.0
2017-Feb-26 08:33N 51°52' E 004°18'0 0.0
2017-Feb-26 07:33N 51°52' E 004°18'0 0.0
2017-Feb-26 06:33N 51°52' E 004°18'0 0.0
2017-Feb-26 05:33N 51°52' E 004°18'0 0.0
2017-Feb-26 04:33N 51°52' E 004°18'0 0.0
2017-Feb-26 03:33N 51°52' E 004°18'0 0.0
2017-Feb-26 02:33N 51°52' E 004°18'0 0.0
2017-Feb-26 01:33N 51°52' E 004°18'0 0.0
2017-Feb-26 00:33N 51°52' E 004°18'0 0.0
2017-Feb-25 23:33N 51°52' E 004°18'0 0.0
2017-Feb-25 22:33N 51°52' E 004°18'0 0.0
2017-Feb-25 21:33N 51°52' E 004°18'0 0.0
2017-Feb-25 20:33N 51°52' E 004°18'3 3.1
2017-Feb-25 19:33N 51°54' E 004°14'10 9.8
2017-Feb-25 18:33N 51°50' E 004°28'8 7.9
2017-Feb-25 17:31N 51°49' E 004°42'1010.2
2017-Feb-25 16:33N 51°50' E 004°57'1110.2
2017-Feb-25 15:27N 51°49' E 005°16'9 9.1
2017-Feb-25 14:27N 51°53' E 005°29'1010.8
2017-Feb-25 13:33N 51°53' E 005°44'9 8.5
2017-Feb-25 12:33N 51°51' E 005°58'1010.4
2017-Feb-25 11:33N 51°50' E 006°14'9 9.3
2017-Feb-25 10:33N 51°43' E 006°25'9 8.9
2017-Feb-25 09:33N 51°37' E 006°35'9 8.6
2017-Feb-25 08:33N 51°30' E 006°43'9 8.3
2017-Feb-25 07:26N 51°21' E 006°40'8 9.6
2017-Feb-25 06:33N 51°13' E 006°46'15 7.2
2017-Feb-25 04:31N 51°01' E 006°58'9 8.7
2017-Feb-25 03:30N 50°52' E 007°03'8 8.2
2017-Feb-25 02:33N 50°45' E 007°06'  
2017-Feb-21 06:04N 49°12' E 008°23'0 0.6
2017-Feb-21 05:31N 49°13' E 008°23'  
2017-Feb-17 11:05N 47°37' E 007°34'4 5.7
2017-Feb-17 10:24N 47°33' E 007°37'1 1.4
2017-Feb-17 09:33N 47°33' E 007°38'0 0.0
2017-Feb-17 08:33N 47°33' E 007°38'0 0.0
2017-Feb-17 07:33N 47°33' E 007°38'0 0.0
2017-Feb-17 06:33N 47°33' E 007°38'0 0.0
2017-Feb-17 05:34N 47°33' E 007°38'0 0.0
2017-Feb-17 04:33N 47°33' E 007°38'0 0.0
2017-Feb-17 03:33N 47°33' E 007°38'0 0.0
2017-Feb-17 02:33N 47°33' E 007°38'0 0.0
2017-Feb-17 01:34N 47°33' E 007°38'0 0.0
2017-Feb-17 00:32N 47°33' E 007°38'0 0.0
2017-Feb-16 23:33N 47°33' E 007°38'0 0.0
2017-Feb-16 22:33N 47°33' E 007°38'  

Dump ship's entire track history